Time;durP1;ratioP1;P1;durP2;ratioP2;P2;SDS_P1;SDS_P2;PMS_P1;PMS_P2;Temp;Humidity;BMP_temperature;BMP_pressure;BME280_temperature;BME280_humidity;BME280_pressure;Samples;Min_cycle;Max_cycle;Signal;HPM_P1;HPM_P2
2022/01/19 00:00:14;;;;;;;3.95;3.63;;;;;;;;;;5038766;28;20044;-57
2022/01/19 00:02:40;;;;;;;3.33;3.03;;;;;;;;;;5039877;28;20056;-57
2022/01/19 00:05:07;;;;;;;3.80;3.50;;;;;;;;;;5042199;28;20477;-57
2022/01/19 00:07:32;;;;;;;4.35;3.55;;;;;;;;;;5041321;28;20033;-57
2022/01/19 00:10:03;;;;;;;3.47;3.17;;;;;;;;;;5036937;28;20156;-57
2022/01/19 00:12:29;;;;;;;4.63;4.00;;;;;;;;;;5039414;28;20462;-59
2022/01/19 00:14:55;;;;;;;3.53;3.22;;;;;;;;;;5031967;28;20365;-59
2022/01/19 00:17:20;;;;;;;3.35;3.05;;;;;;;;;;5040195;28;20033;-59
2022/01/19 00:19:45;;;;;;;3.42;3.13;;;;;;;;;;5043518;28;20044;-58
2022/01/19 00:22:11;;;;;;;3.00;2.70;;;;;;;;;;5038355;28;20055;-58
2022/01/19 00:24:36;;;;;;;3.20;2.90;;;;;;;;;;5041223;28;20375;-57
2022/01/19 00:27:02;;;;;;;2.97;2.67;;;;;;;;;;5041394;28;20107;-58
2022/01/19 00:29:27;;;;;;;3.67;3.38;;;;;;;;;;5039339;28;20044;-58
2022/01/19 00:31:52;;;;;;;3.13;2.80;;;;;;;;;;5042587;28;20103;-58
2022/01/19 00:34:18;;;;;;;3.20;2.90;;;;;;;;;;5039891;28;20471;-58
2022/01/19 00:36:43;;;;;;;3.83;3.42;;;;;;;;;;5038829;28;20187;-57
2022/01/19 00:39:09;;;;;;;3.90;3.55;;;;;;;;;;5040976;28;20053;-58
2022/01/19 00:41:34;;;;;;;3.60;3.30;;;;;;;;;;5042085;28;20033;-57
2022/01/19 00:43:59;;;;;;;4.10;3.80;;;;;;;;;;5039390;28;20025;-57
2022/01/19 00:46:25;;;;;;;3.45;3.15;;;;;;;;;;5039698;28;20030;-58
2022/01/19 00:48:50;;;;;;;4.35;3.95;;;;;;;;;;5041685;28;20068;-57
2022/01/19 00:51:16;;;;;;;4.07;3.67;;;;;;;;;;5039526;28;20383;-58
2022/01/19 00:53:41;;;;;;;3.47;3.17;;;;;;;;;;5041587;28;20607;-57
2022/01/19 00:56:06;;;;;;;3.42;3.13;;;;;;;;;;5038124;28;20033;-58
2022/01/19 00:58:32;;;;;;;3.95;3.42;;;;;;;;;;5039781;28;20048;-57
2022/01/19 01:00:57;;;;;;;3.65;3.35;;;;;;;;;;5040629;28;20025;-59
2022/01/19 01:03:22;;;;;;;3.70;3.40;;;;;;;;;;5041053;28;20112;-58
2022/01/19 01:05:48;;;;;;;3.42;3.13;;;;;;;;;;5040516;28;20033;-58
2022/01/19 01:08:13;;;;;;;3.50;3.20;;;;;;;;;;5041130;28;20029;-58
2022/01/19 01:10:43;;;;;;;3.00;2.70;;;;;;;;;;5037992;28;20052;-59
2022/01/19 01:13:23;;;;;;;3.65;3.22;;;;;;;;;;5041594;28;20037;-59
2022/01/19 01:16:04;;;;;;;3.28;2.90;;;;;;;;;;5037496;28;20034;-59
2022/01/19 01:18:30;;;;;;;;;;;;;;;;;;5039426;28;20029;-58
2022/01/19 01:20:58;;;;;;;3.55;3.25;;;;;;;;;;5047285;28;19919;-59
2022/01/19 01:23:26;;;;;;;3.53;3.22;;;;;;;;;;5038411;28;20041;-58
2022/01/19 01:25:53;;;;;;;3.25;2.95;;;;;;;;;;5038998;28;20059;-56
2022/01/19 01:28:19;;;;;;;3.63;3.33;;;;;;;;;;5039824;28;20029;-56
2022/01/19 01:30:45;;;;;;;3.92;3.63;;;;;;;;;;5038318;28;20140;-59
2022/01/19 01:33:11;;;;;;;3.65;3.35;;;;;;;;;;5037129;28;20121;-59
2022/01/19 01:35:37;;;;;;;3.65;2.90;;;;;;;;;;5039848;28;20037;-59
2022/01/19 01:38:04;;;;;;;4.03;3.67;;;;;;;;;;5039542;28;20066;-59
2022/01/19 01:40:33;;;;;;;3.75;3.45;;;;;;;;;;5037490;28;20212;-59
2022/01/19 01:42:59;;;;;;;3.58;3.28;;;;;;;;;;5042274;28;20049;-58
2022/01/19 01:45:28;;;;;;;3.20;2.90;;;;;;;;;;5038829;28;20063;-59
2022/01/19 01:48:05;;;;;;;3.50;3.20;;;;;;;;;;5038807;28;20043;-58
2022/01/19 01:53:27;;;;;;;3.33;2.92;;;;;;;;;;5039298;28;20136;-58
2022/01/19 01:55:59;;;;;;;3.75;3.45;;;;;;;;;;5039669;28;20021;-59
2022/01/19 01:58:25;;;;;;;3.53;3.22;;;;;;;;;;5040589;28;20060;-59
2022/01/19 02:00:52;;;;;;;3.47;3.10;;;;;;;;;;5036022;28;20036;-58
2022/01/19 02:03:17;;;;;;;3.78;3.47;;;;;;;;;;5037925;28;20046;-59
2022/01/19 02:06:20;;;;;;;3.30;3.00;;;;;;;;;;5040351;28;20487;-59
2022/01/19 02:08:57;;;;;;;3.42;3.13;;;;;;;;;;5037982;28;20091;-59
2022/01/19 02:22:36;;;;;;;3.38;3.08;;;;;;;;;;5038596;28;20052;-58
2022/01/19 02:25:03;;;;;;;3.55;3.25;;;;;;;;;;5038779;28;20120;-58
2022/01/19 02:41:26;;;;;;;3.80;3.40;;;;;;;;;;5039064;28;20497;-58
2022/01/19 02:43:51;;;;;;;3.67;3.38;;;;;;;;;;5038980;28;20143;-58
2022/01/19 02:46:52;;;;;;;3.95;3.65;;;;;;;;;;5037019;28;20887;-58
2022/01/19 02:49:19;;;;;;;3.65;3.35;;;;;;;;;;5038507;28;20558;-58
2022/01/19 02:51:53;;;;;;;3.63;3.33;;;;;;;;;;5037193;28;20034;-58
2022/01/19 02:54:23;;;;;;;3.92;3.63;;;;;;;;;;5036983;28;20037;-58
2022/01/19 02:56:55;;;;;;;3.95;3.50;;;;;;;;;;5037020;28;20371;-58
2022/01/19 02:59:32;;;;;;;3.75;3.40;;;;;;;;;;5039119;28;20112;-58
2022/01/19 03:10:11;;;;;;;3.63;3.33;;;;;;;;;;5036430;28;20026;-58
2022/01/19 03:12:37;;;;;;;3.15;2.85;;;;;;;;;;5039852;28;20040;-58
2022/01/19 03:15:03;;;;;;;3.72;3.42;;;;;;;;;;5037599;28;20033;-58
2022/01/19 03:17:29;;;;;;;3.65;3.10;;;;;;;;;;5036898;28;20106;-58
2022/01/19 03:19:54;;;;;;;3.80;3.50;;;;;;;;;;5036863;28;20459;-58
2022/01/19 03:22:25;;;;;;;3.50;3.20;;;;;;;;;;5036552;28;20116;-58
2022/01/19 03:24:52;;;;;;;3.88;3.58;;;;;;;;;;5041106;28;20044;-58
2022/01/19 03:27:18;;;;;;;3.53;3.22;;;;;;;;;;5039281;28;20037;-58
2022/01/19 03:29:44;;;;;;;3.92;3.63;;;;;;;;;;5036641;28;20516;-58
2022/01/19 03:32:10;;;;;;;3.80;3.50;;;;;;;;;;5036357;28;20040;-58
2022/01/19 03:34:36;;;;;;;4.13;3.78;;;;;;;;;;5036520;28;20111;-58
2022/01/19 03:37:03;;;;;;;3.70;3.40;;;;;;;;;;5037079;28;20368;-58
2022/01/19 03:39:29;;;;;;;3.75;3.45;;;;;;;;;;5039432;28;20093;-58
2022/01/19 03:41:54;;;;;;;3.95;3.28;;;;;;;;;;5038428;28;20037;-58
2022/01/19 03:44:20;;;;;;;3.28;2.97;;;;;;;;;;5037166;28;20086;-58
2022/01/19 03:46:57;;;;;;;3.50;3.20;;;;;;;;;;5039763;28;20026;-58
2022/01/19 03:49:25;;;;;;;3.33;3.03;;;;;;;;;;5041781;28;20470;-58
2022/01/19 03:52:02;;;;;;;3.75;3.38;;;;;;;;;;5042620;28;20025;-57
2022/01/19 03:54:29;;;;;;;4.18;3.88;;;;;;;;;;5044193;28;20234;-57
2022/01/19 03:56:55;;;;;;;3.42;3.13;;;;;;;;;;5042053;28;20037;-57
2022/01/19 03:59:21;;;;;;;3.85;3.55;;;;;;;;;;5039908;28;20035;-57
2022/01/19 04:01:47;;;;;;;3.72;3.42;;;;;;;;;;5040669;28;20175;-57
2022/01/19 04:04:29;;;;;;;3.53;3.22;;;;;;;;;;5039869;28;20074;-57
2022/01/19 04:07:00;;;;;;;5.07;4.20;;;;;;;;;;5040601;28;20037;-57
2022/01/19 04:09:27;;;;;;;3.47;3.17;;;;;;;;;;5043347;28;20029;-57
2022/01/19 04:11:53;;;;;;;3.55;3.17;;;;;;;;;;5040571;28;20037;-57
2022/01/19 04:14:27;;;;;;;3.45;3.15;;;;;;;;;;5042067;28;20094;-57
2022/01/19 04:17:03;;;;;;;3.95;3.50;;;;;;;;;;5041309;28;20041;-58
2022/01/19 04:19:48;;;;;;;3.35;3.05;;;;;;;;;;5041643;28;20095;-57
2022/01/19 04:22:19;;;;;;;4.55;3.67;;;;;;;;;;5038318;28;20032;-57
2022/01/19 04:24:49;;;;;;;4.35;3.95;;;;;;;;;;5041444;28;20040;-59
2022/01/19 04:29:54;;;;;;;3.83;3.53;;;;;;;;;;5039823;28;20417;-57
2022/01/19 04:32:26;;;;;;;4.82;3.90;;;;;;;;;;5046211;28;20062;-58
2022/01/19 04:34:52;;;;;;;3.60;3.30;;;;;;;;;;5042172;28;20036;-58
2022/01/19 05:01:47;;;;;;;5.15;4.30;;;;;;;;;;5041588;28;20040;-57
2022/01/19 05:04:32;;;;;;;3.70;3.40;;;;;;;;;;5038636;28;20075;-57
2022/01/19 05:07:13;;;;;;;3.78;3.47;;;;;;;;;;5040303;28;20354;-57
2022/01/19 05:09:57;;;;;;;3.88;3.50;;;;;;;;;;5039627;28;20060;-58
2022/01/19 05:15:07;;;;;;;4.07;3.75;;;;;;;;;;5037555;28;20052;-58
2022/01/19 05:17:36;;;;;;;3.78;3.47;;;;;;;;;;5041443;28;20111;-58
2022/01/19 05:20:03;;;;;;;4.22;3.83;;;;;;;;;;5039925;28;20029;-58
2022/01/19 05:22:29;;;;;;;4.63;4.20;;;;;;;;;;5042127;28;20107;-58
2022/01/19 05:24:54;;;;;;;4.10;3.70;;;;;;;;;;5038854;28;20021;-58
2022/01/19 05:27:21;;;;;;;4.55;4.15;;;;;;;;;;5041100;28;20033;-58
2022/01/19 05:29:47;;;;;;;4.15;3.75;;;;;;;;;;5039283;28;20033;-58
2022/01/19 05:32:13;;;;;;;4.50;4.10;;;;;;;;;;5038293;28;20079;-58
2022/01/19 05:34:38;;;;;;;4.32;3.92;;;;;;;;;;5041711;28;20044;-58
2022/01/19 05:37:04;;;;;;;4.57;4.15;;;;;;;;;;5039190;28;20044;-58
2022/01/19 05:39:29;;;;;;;4.80;4.40;;;;;;;;;;5039783;28;20039;-57
2022/01/19 05:41:55;;;;;;;4.60;4.13;;;;;;;;;;5038810;28;20033;-58
2022/01/19 05:44:20;;;;;;;4.15;3.75;;;;;;;;;;5038935;28;20075;-58
2022/01/19 05:46:46;;;;;;;4.32;3.92;;;;;;;;;;5040420;28;20111;-58
2022/01/19 05:49:11;;;;;;;4.60;4.18;;;;;;;;;;5041260;28;20047;-59
2022/01/19 05:51:37;;;;;;;4.65;4.15;;;;;;;;;;5040385;28;20584;-57
2022/01/19 05:54:02;;;;;;;5.07;4.57;;;;;;;;;;5039939;28;20128;-58
2022/01/19 05:56:27;;;;;;;6.15;4.05;;;;;;;;;;5037906;28;20033;-58
2022/01/19 05:58:53;;;;;;;4.43;4.03;;;;;;;;;;5037121;28;20082;-58
2022/01/19 06:01:19;;;;;;;4.45;4.05;;;;;;;;;;5040567;28;20044;-58
2022/01/19 06:03:44;;;;;;;4.70;4.30;;;;;;;;;;5040475;28;20462;-57
2022/01/19 06:06:10;;;;;;;4.13;3.78;;;;;;;;;;5038673;28;20037;-57
2022/01/19 06:08:43;;;;;;;5.20;4.78;;;;;;;;;;5039070;28;20047;-58
2022/01/19 06:11:09;;;;;;;4.68;4.28;;;;;;;;;;5038147;28;20030;-57
2022/01/19 06:13:35;;;;;;;4.70;4.30;;;;;;;;;;5035447;28;20057;-57
2022/01/19 06:16:01;;;;;;;4.30;3.90;;;;;;;;;;5037871;28;20340;-57
2022/01/19 06:18:27;;;;;;;4.22;3.83;;;;;;;;;;5039490;28;20117;-57
2022/01/19 06:20:53;;;;;;;5.47;4.95;;;;;;;;;;5036214;28;20029;-57
2022/01/19 06:23:18;;;;;;;4.53;3.85;;;;;;;;;;5036510;28;20101;-57
2022/01/19 06:25:43;;;;;;;4.38;3.97;;;;;;;;;;5037684;28;20355;-57
2022/01/19 06:28:09;;;;;;;4.13;3.75;;;;;;;;;;5038125;28;20175;-57
2022/01/19 06:30:34;;;;;;;5.78;4.50;;;;;;;;;;5039667;28;20034;-57
2022/01/19 06:33:00;;;;;;;5.18;4.28;;;;;;;;;;5035932;28;20021;-57
2022/01/19 06:35:26;;;;;;;5.10;4.60;;;;;;;;;;5038214;28;20518;-57
2022/01/19 06:37:51;;;;;;;6.43;5.07;;;;;;;;;;5040871;28;20025;-57
2022/01/19 06:40:18;;;;;;;4.38;3.95;;;;;;;;;;5038695;28;20118;-57
2022/01/19 06:42:44;;;;;;;4.35;3.95;;;;;;;;;;5044412;28;20406;-57
2022/01/19 06:45:10;;;;;;;3.75;3.45;;;;;;;;;;5038156;28;20059;-57
2022/01/19 06:47:37;;;;;;;4.55;4.10;;;;;;;;;;5039776;28;20057;-57
2022/01/19 06:50:04;;;;;;;4.30;3.90;;;;;;;;;;5038782;28;20037;-57
2022/01/19 06:52:30;;;;;;;5.32;4.82;;;;;;;;;;5038140;28;20030;-57
2022/01/19 06:54:55;;;;;;;4.18;3.78;;;;;;;;;;5039128;28;20021;-57
2022/01/19 06:57:20;;;;;;;5.40;4.50;;;;;;;;;;5045788;28;20459;-57
2022/01/19 06:59:46;;;;;;;3.42;3.13;;;;;;;;;;5038596;28;20037;-57
2022/01/19 07:02:11;;;;;;;3.88;3.58;;;;;;;;;;5038116;28;20025;-57
2022/01/19 07:04:38;;;;;;;4.38;3.55;;;;;;;;;;5036371;28;20034;-58
2022/01/19 07:07:04;;;;;;;4.55;4.13;;;;;;;;;;5039270;28;20110;-57
2022/01/19 07:09:29;;;;;;;4.03;3.63;;;;;;;;;;5036546;28;20529;-57
2022/01/19 07:11:55;;;;;;;3.50;3.20;;;;;;;;;;5034953;28;20109;-57
2022/01/19 07:14:21;;;;;;;3.20;2.90;;;;;;;;;;5035492;28;20047;-57
2022/01/19 07:16:47;;;;;;;3.65;3.20;;;;;;;;;;5037385;28;20044;-57
2022/01/19 07:19:16;;;;;;;4.30;3.53;;;;;;;;;;5037353;28;20663;-57
2022/01/19 07:21:41;;;;;;;5.30;3.65;;;;;;;;;;5036633;28;20063;-57
2022/01/19 07:24:07;;;;;;;4.68;3.92;;;;;;;;;;5040019;28;20458;-57
2022/01/19 07:26:32;;;;;;;5.30;4.10;;;;;;;;;;5048687;28;20033;-57
2022/01/19 07:28:58;;;;;;;3.40;3.10;;;;;;;;;;5043979;28;20084;-58
2022/01/19 07:31:23;;;;;;;5.85;4.70;;;;;;;;;;5042766;28;20033;-58
2022/01/19 07:33:49;;;;;;;5.40;4.05;;;;;;;;;;5044661;28;20060;-58
2022/01/19 07:36:15;;;;;;;5.22;4.38;;;;;;;;;;5042722;28;20092;-57
2022/01/19 07:38:41;;;;;;;5.53;4.55;;;;;;;;;;5040151;28;20037;-57
2022/01/19 07:41:06;;;;;;;4.88;4.25;;;;;;;;;;5038594;28;20340;-57
2022/01/19 07:43:32;;;;;;;5.35;4.68;;;;;;;;;;5041950;28;20451;-57
2022/01/19 07:45:57;;;;;;;5.80;5.28;;;;;;;;;;5041776;28;20455;-57
2022/01/19 07:48:23;;;;;;;4.90;4.40;;;;;;;;;;5042385;28;20387;-57
2022/01/19 07:50:48;;;;;;;4.18;3.78;;;;;;;;;;5042056;28;20056;-57
2022/01/19 07:53:14;;;;;;;4.15;3.75;;;;;;;;;;5041206;28;20033;-57
2022/01/19 07:55:39;;;;;;;4.32;3.92;;;;;;;;;;5042919;28;20463;-57
2022/01/19 07:58:04;;;;;;;3.92;3.60;;;;;;;;;;5042101;28;20059;-57
2022/01/19 08:00:33;;;;;;;6.47;4.75;;;;;;;;;;5038807;28;20036;-57
2022/01/19 08:02:58;;;;;;;4.28;3.88;;;;;;;;;;5039687;28;20037;-57
2022/01/19 08:05:24;;;;;;;4.43;4.03;;;;;;;;;;5039429;28;20043;-58
2022/01/19 08:07:49;;;;;;;3.10;2.80;;;;;;;;;;5042373;28;20032;-57
2022/01/19 08:10:14;;;;;;;6.57;5.93;;;;;;;;;;5039350;28;20132;-58
2022/01/19 08:12:40;;;;;;;4.93;4.43;;;;;;;;;;5038180;28;20029;-58
2022/01/19 08:15:06;;;;;;;4.57;4.18;;;;;;;;;;5041796;28;20104;-58
2022/01/19 08:17:32;;;;;;;4.95;4.45;;;;;;;;;;5040970;28;20037;-57
2022/01/19 08:19:58;;;;;;;5.47;4.78;;;;;;;;;;5040961;28;20493;-58
2022/01/19 08:22:24;;;;;;;5.03;4.55;;;;;;;;;;5039897;28;20447;-58
2022/01/19 08:24:50;;;;;;;7.53;4.43;;;;;;;;;;5038389;28;20036;-57
2022/01/19 08:27:15;;;;;;;4.68;4.18;;;;;;;;;;5041255;28;20032;-57
2022/01/19 08:29:41;;;;;;;5.43;4.55;;;;;;;;;;5036804;28;20087;-57
2022/01/19 08:32:07;;;;;;;4.78;4.38;;;;;;;;;;5041547;28;20052;-58
2022/01/19 08:34:33;;;;;;;5.45;4.95;;;;;;;;;;5040486;28;20037;-58
2022/01/19 08:36:59;;;;;;;8.93;4.75;;;;;;;;;;5038033;28;20025;-57
2022/01/19 08:39:25;;;;;;;5.07;4.15;;;;;;;;;;5040682;28;20320;-57
2022/01/19 08:41:53;;;;;;;5.10;4.60;;;;;;;;;;5042187;28;20115;-58
2022/01/19 08:44:19;;;;;;;4.13;3.78;;;;;;;;;;5039122;28;20045;-57
2022/01/19 08:46:45;;;;;;;5.03;4.57;;;;;;;;;;5038259;28;20037;-59
2022/01/19 08:49:11;;;;;;;5.50;4.35;;;;;;;;;;5038365;28;20032;-59
2022/01/19 08:51:37;;;;;;;5.35;4.85;;;;;;;;;;5040827;28;20037;-59
2022/01/19 08:54:03;;;;;;;5.20;4.70;;;;;;;;;;5041374;28;20025;-59
2022/01/19 08:56:29;;;;;;;5.47;4.28;;;;;;;;;;5040200;28;20040;-59
2022/01/19 08:58:55;;;;;;;5.47;4.88;;;;;;;;;;5039964;28;20040;-59
2022/01/19 09:01:20;;;;;;;5.63;4.72;;;;;;;;;;5040001;28;20348;-59
2022/01/19 09:03:45;;;;;;;4.88;4.38;;;;;;;;;;5041287;28;20065;-59
2022/01/19 09:06:11;;;;;;;4.82;4.35;;;;;;;;;;5042518;28;20033;-59
2022/01/19 09:08:36;;;;;;;4.80;3.83;;;;;;;;;;5039388;28;20033;-59
2022/01/19 09:11:02;;;;;;;4.30;3.90;;;;;;;;;;5038666;28;20033;-59
2022/01/19 09:13:28;;;;;;;4.10;3.70;;;;;;;;;;5039710;28;20472;-59
2022/01/19 09:15:54;;;;;;;4.97;4.40;;;;;;;;;;5038620;28;20032;-59
2022/01/19 09:18:20;;;;;;;3.97;3.58;;;;;;;;;;5037493;28;20075;-59
2022/01/19 09:20:46;;;;;;;6.63;4.60;;;;;;;;;;5038782;28;20032;-59
2022/01/19 09:23:11;;;;;;;5.50;4.72;;;;;;;;;;5040198;28;20029;-59
2022/01/19 09:25:37;;;;;;;7.55;4.97;;;;;;;;;;5042163;28;20117;-59
2022/01/19 09:28:03;;;;;;;5.90;5.28;;;;;;;;;;5039693;28;20033;-59
2022/01/19 09:30:28;;;;;;;5.10;4.65;;;;;;;;;;5039272;28;20069;-59
2022/01/19 09:33:10;;;;;;;5.38;4.38;;;;;;;;;;5040081;28;20037;-59
2022/01/19 09:38:24;;;;;;;5.47;4.85;;;;;;;;;;5037617;28;20463;-59
2022/01/19 09:40:50;;;;;;;5.32;4.78;;;;;;;;;;5039764;28;20041;-59
2022/01/19 09:43:17;;;;;;;6.90;6.22;;;;;;;;;;5046387;28;20060;-59
2022/01/19 09:45:43;;;;;;;6.32;5.68;;;;;;;;;;5037483;28;20036;-59
2022/01/19 09:48:09;;;;;;;5.38;4.88;;;;;;;;;;5036904;28;20026;-59
2022/01/19 09:50:35;;;;;;;5.03;4.60;;;;;;;;;;5041050;28;20041;-60
2022/01/19 09:53:07;;;;;;;4.50;4.10;;;;;;;;;;5041371;28;20044;-59
2022/01/19 09:55:34;;;;;;;5.45;4.93;;;;;;;;;;5041000;28;20363;-59
2022/01/19 09:57:59;;;;;;;7.88;5.50;;;;;;;;;;5038623;28;20655;-59
2022/01/19 10:00:25;;;;;;;5.40;4.90;;;;;;;;;;5037034;28;20060;-59
2022/01/19 10:03:13;;;;;;;5.10;4.60;;;;;;;;;;5042300;28;20060;-59
2022/01/19 10:05:57;;;;;;;5.28;4.78;;;;;;;;;;5041009;28;20041;-59
2022/01/19 10:08:27;;;;;;;6.10;5.45;;;;;;;;;;5040245;28;20060;-59
2022/01/19 10:11:19;;;;;;;5.60;4.82;;;;;;;;;;5036447;28;20146;-59
2022/01/19 10:16:59;;;;;;;7.07;6.00;;;;;;;;;;5037691;28;20065;-60
2022/01/19 10:19:27;;;;;;;5.90;4.40;;;;;;;;;;5040832;28;20098;-59
2022/01/19 10:22:05;;;;;;;4.78;4.38;;;;;;;;;;5039540;28;20049;-59
2022/01/19 10:24:41;;;;;;;4.80;4.38;;;;;;;;;;5036192;28;20036;-59
2022/01/19 10:27:26;;;;;;;7.50;5.80;;;;;;;;;;5037820;28;20029;-59
2022/01/19 10:30:03;;;;;;;5.45;4.95;;;;;;;;;;5040247;28;20359;-59
2022/01/19 10:32:31;;;;;;;5.47;5.00;;;;;;;;;;5037019;28;20051;-59
2022/01/19 10:34:56;;;;;;;5.65;5.15;;;;;;;;;;5037875;28;20044;-60
2022/01/19 10:37:27;;;;;;;5.43;4.93;;;;;;;;;;5040287;28;20028;-59
2022/01/19 10:39:57;;;;;;;5.80;5.20;;;;;;;;;;5037747;28;20025;-59
2022/01/19 10:42:31;;;;;;;7.60;5.28;;;;;;;;;;5037016;28;20068;-59
2022/01/19 10:44:58;;;;;;;4.95;4.53;;;;;;;;;;5036702;28;20021;-59
2022/01/19 10:47:58;;;;;;;7.30;5.80;;;;;;;;;;5035712;28;20034;-59
2022/01/19 10:50:31;;;;;;;6.20;5.50;;;;;;;;;;5035928;28;20480;-59
2022/01/19 10:53:03;;;;;;;4.50;4.10;;;;;;;;;;5036700;28;20117;-59
2022/01/19 10:55:39;;;;;;;6.55;5.78;;;;;;;;;;5039228;28;20099;-59
2022/01/19 10:58:13;;;;;;;4.97;4.57;;;;;;;;;;5040864;28;20030;-59
2022/01/19 11:00:48;;;;;;;5.13;4.63;;;;;;;;;;5042982;28;20056;-59
2022/01/19 11:03:25;;;;;;;6.55;5.93;;;;;;;;;;5041479;28;20040;-60
2022/01/19 11:05:53;;;;;;;6.15;5.07;;;;;;;;;;5042059;28;20124;-59
2022/01/19 11:08:20;;;;;;;6.30;5.70;;;;;;;;;;5043083;28;20512;-60
2022/01/19 11:10:49;;;;;;;5.55;4.80;;;;;;;;;;5042023;28;20032;-60
2022/01/19 11:13:32;;;;;;;6.90;5.60;;;;;;;;;;5045191;28;20358;-59
2022/01/19 11:16:00;;;;;;;4.82;4.32;;;;;;;;;;5040909;28;20050;-60
2022/01/19 11:18:29;;;;;;;5.45;4.93;;;;;;;;;;5042676;28;20682;-60
2022/01/19 11:20:57;;;;;;;7.57;5.07;;;;;;;;;;5044129;28;20481;-59
2022/01/19 11:23:41;;;;;;;5.70;5.20;;;;;;;;;;5042312;28;20040;-59
2022/01/19 11:26:12;;;;;;;4.60;4.20;;;;;;;;;;5039583;28;20040;-59
2022/01/19 11:28:46;;;;;;;5.93;4.97;;;;;;;;;;5042062;28;20056;-59
2022/01/19 11:31:19;;;;;;;6.65;5.90;;;;;;;;;;5042035;28;20408;-58
2022/01/19 11:33:52;;;;;;;7.65;6.95;;;;;;;;;;5042005;28;20037;-59
2022/01/19 11:36:26;;;;;;;5.25;4.75;;;;;;;;;;5039274;28;20060;-59
2022/01/19 11:39:03;;;;;;;6.97;6.25;;;;;;;;;;5042147;28;20045;-59
2022/01/19 11:42:04;;;;;;;6.78;4.93;;;;;;;;;;5042196;28;20073;-59
2022/01/19 11:44:32;;;;;;;6.63;5.33;;;;;;;;;;5033781;28;20088;-59
2022/01/19 11:47:11;;;;;;;6.38;5.78;;;;;;;;;;5039895;28;20163;-60
2022/01/19 11:49:46;;;;;;;5.13;4.72;;;;;;;;;;5041654;28;20037;-60
2022/01/19 11:52:14;;;;;;;7.00;6.35;;;;;;;;;;5043167;28;20082;-60
2022/01/19 11:54:39;;;;;;;6.13;5.55;;;;;;;;;;5040289;28;20113;-60
2022/01/19 11:57:11;;;;;;;6.93;6.32;;;;;;;;;;5038863;28;20112;-60
2022/01/19 11:59:48;;;;;;;5.93;5.15;;;;;;;;;;5039712;28;20040;-60
2022/01/19 12:02:28;;;;;;;7.85;5.97;;;;;;;;;;5039278;28;20029;-59
2022/01/19 12:04:59;;;;;;;7.18;5.45;;;;;;;;;;5040841;28;20029;-61
2022/01/19 12:07:52;;;;;;;6.05;4.80;;;;;;;;;;5039463;28;20495;-60
2022/01/19 12:10:37;;;;;;;8.82;6.20;;;;;;;;;;5039423;28;20028;-60
2022/01/19 12:16:06;;;;;;;12.15;6.13;;;;;;;;;;5037281;28;20029;-60
2022/01/19 12:18:40;;;;;;;6.53;5.75;;;;;;;;;;5039351;28;20071;-59
2022/01/19 12:21:07;;;;;;;6.45;5.85;;;;;;;;;;5037848;28;20035;-60
2022/01/19 12:23:35;;;;;;;6.38;5.75;;;;;;;;;;5043163;28;20026;-60
2022/01/19 12:26:02;;;;;;;7.15;6.45;;;;;;;;;;5040962;28;20400;-60
2022/01/19 12:28:56;;;;;;;6.00;5.45;;;;;;;;;;5039489;28;20240;-60
2022/01/19 12:31:24;;;;;;;6.55;5.95;;;;;;;;;;5041646;28;20041;-59
2022/01/19 12:34:02;;;;;;;5.72;5.15;;;;;;;;;;5041074;28;20086;-62
2022/01/19 12:36:54;;;;;;;6.57;5.90;;;;;;;;;;5042668;28;20025;-59
2022/01/19 12:39:25;;;;;;;6.00;5.45;;;;;;;;;;5041481;28;20644;-59
2022/01/19 12:42:01;;;;;;;;;;;;;;;;;;5041318;28;20043;-60
2022/01/19 12:44:47;;;;;;;6.55;4.90;;;;;;;;;;5040145;28;19913;-59
2022/01/19 12:47:24;;;;;;;8.70;5.72;;;;;;;;;;5036783;28;20055;-60
2022/01/19 12:49:51;;;;;;;8.15;6.80;;;;;;;;;;5037962;28;20102;-59
2022/01/19 12:52:17;;;;;;;5.70;5.18;;;;;;;;;;5039533;28;20463;-60
2022/01/19 12:54:43;;;;;;;7.68;6.75;;;;;;;;;;5041896;28;20044;-59
2022/01/19 12:57:14;;;;;;;6.85;6.20;;;;;;;;;;5041457;28;20108;-59
2022/01/19 12:59:40;;;;;;;6.88;6.00;;;;;;;;;;5039593;28;20041;-59
2022/01/19 13:02:06;;;;;;;7.82;7.05;;;;;;;;;;5040937;28;20029;-59
2022/01/19 13:04:33;;;;;;;7.65;6.43;;;;;;;;;;5039502;28;20033;-59
2022/01/19 13:07:21;;;;;;;7.57;5.18;;;;;;;;;;5039735;28;20467;-59
2022/01/19 13:10:19;;;;;;;10.15;6.50;;;;;;;;;;5041295;28;20044;-60
2022/01/19 13:13:05;;;;;;;5.65;5.15;;;;;;;;;;5036052;28;20471;-59
2022/01/19 13:15:49;;;;;;;8.43;5.90;;;;;;;;;;5043207;28;20037;-59
2022/01/19 13:18:18;;;;;;;8.77;7.22;;;;;;;;;;5038570;28;20029;-60
2022/01/19 13:20:51;;;;;;;6.82;6.15;;;;;;;;;;5038705;28;20090;-60
2022/01/19 13:23:18;;;;;;;10.20;5.32;;;;;;;;;;5034694;28;20032;-59
2022/01/19 13:25:53;;;;;;;6.05;5.13;;;;;;;;;;5037735;28;20037;-60
2022/01/19 13:28:30;;;;;;;5.55;5.05;;;;;;;;;;5039284;28;20041;-59
2022/01/19 13:30:57;;;;;;;5.18;4.78;;;;;;;;;;5036699;28;20033;-59
2022/01/19 13:33:24;;;;;;;8.60;5.57;;;;;;;;;;5039818;28;20507;-60
2022/01/19 13:36:01;;;;;;;6.07;5.47;;;;;;;;;;5040062;28;20091;-61
2022/01/19 13:38:26;;;;;;;6.63;6.03;;;;;;;;;;5039382;28;20048;-60
2022/01/19 13:41:02;;;;;;;8.50;5.50;;;;;;;;;;5039771;28;20028;-60
2022/01/19 13:43:32;;;;;;;6.80;6.20;;;;;;;;;;5038960;28;20033;-60
2022/01/19 13:46:02;;;;;;;5.53;5.03;;;;;;;;;;5038808;28;20041;-59
2022/01/19 13:48:28;;;;;;;6.25;5.65;;;;;;;;;;5040645;28;20037;-59
2022/01/19 13:50:56;;;;;;;6.60;6.00;;;;;;;;;;5038552;28;20386;-60
2022/01/19 13:53:39;;;;;;;8.70;4.57;;;;;;;;;;5039492;28;20043;-59
2022/01/19 13:56:22;;;;;;;9.70;5.28;;;;;;;;;;5037692;28;20049;-59
2022/01/19 13:58:53;;;;;;;8.18;5.28;;;;;;;;;;5040111;28;20076;-59
2022/01/19 14:01:24;;;;;;;6.28;5.53;;;;;;;;;;5038268;28;20087;-59
2022/01/19 14:04:00;;;;;;;6.90;5.15;;;;;;;;;;5034673;28;20049;-59
2022/01/19 14:06:40;;;;;;;7.55;5.95;;;;;;;;;;5034083;28;20041;-59
2022/01/19 14:09:40;;;;;;;7.32;4.72;;;;;;;;;;5038436;28;20027;-59
2022/01/19 14:12:11;;;;;;;6.20;5.60;;;;;;;;;;5038958;28;20068;-59
2022/01/19 14:14:50;;;;;;;8.38;5.80;;;;;;;;;;5035765;28;20041;-59
2022/01/19 14:17:31;;;;;;;6.72;5.88;;;;;;;;;;5036621;28;20037;-59
2022/01/19 14:19:58;;;;;;;11.07;6.25;;;;;;;;;;5039884;28;20033;-59
2022/01/19 14:22:32;;;;;;;5.05;4.47;;;;;;;;;;5039526;28;20045;-59
2022/01/19 14:25:01;;;;;;;4.93;4.47;;;;;;;;;;5037017;28;20033;-58
2022/01/19 14:27:26;;;;;;;5.45;4.95;;;;;;;;;;5038789;28;20036;-59
2022/01/19 14:29:56;;;;;;;5.53;4.78;;;;;;;;;;5040257;28;20024;-59
2022/01/19 14:32:40;;;;;;;6.45;5.55;;;;;;;;;;5038355;28;20119;-59
2022/01/19 14:35:30;;;;;;;7.45;6.30;;;;;;;;;;5039052;28;20060;-59
2022/01/19 14:38:04;;;;;;;6.38;5.78;;;;;;;;;;5032472;28;20446;-58
2022/01/19 14:40:31;;;;;;;8.10;5.85;;;;;;;;;;5038167;28;20074;-58
2022/01/19 14:42:57;;;;;;;5.53;4.43;;;;;;;;;;5038890;28;20036;-59
2022/01/19 14:45:35;;;;;;;6.13;5.45;;;;;;;;;;5036168;28;20037;-59
2022/01/19 14:48:12;;;;;;;7.38;6.55;;;;;;;;;;5040006;28;20029;-59
2022/01/19 14:50:38;;;;;;;6.75;4.85;;;;;;;;;;5037023;28;20128;-59
2022/01/19 14:53:04;;;;;;;5.60;5.05;;;;;;;;;;5039295;28;20153;-60
2022/01/19 14:55:32;;;;;;;9.27;6.18;;;;;;;;;;5036615;28;20041;-59
2022/01/19 14:57:59;;;;;;;6.05;5.45;;;;;;;;;;5037258;28;20865;-59
2022/01/19 15:00:27;;;;;;;7.78;4.75;;;;;;;;;;5037832;28;20030;-59
2022/01/19 15:03:01;;;;;;;14.50;5.75;;;;;;;;;;5036674;28;20095;-59
2022/01/19 15:05:29;;;;;;;6.35;5.75;;;;;;;;;;5035537;28;20493;-59
2022/01/19 15:07:55;;;;;;;5.13;4.57;;;;;;;;;;5037355;28;20037;-59
2022/01/19 15:10:21;;;;;;;5.30;4.70;;;;;;;;;;5037343;28;20037;-59
2022/01/19 15:12:51;;;;;;;5.07;4.68;;;;;;;;;;5035288;28;20037;-59
2022/01/19 15:15:17;;;;;;;5.13;4.72;;;;;;;;;;5037614;28;20037;-59
2022/01/19 15:17:42;;;;;;;6.30;4.47;;;;;;;;;;5038220;28;20514;-59
2022/01/19 15:20:08;;;;;;;4.97;4.50;;;;;;;;;;5039114;28;20052;-59
2022/01/19 15:22:34;;;;;;;5.15;4.75;;;;;;;;;;5037318;28;20030;-59
2022/01/19 15:25:01;;;;;;;7.07;5.75;;;;;;;;;;5035853;28;20094;-60
2022/01/19 15:27:26;;;;;;;5.43;4.93;;;;;;;;;;5035651;28;20471;-59
2022/01/19 15:29:52;;;;;;;9.52;6.28;;;;;;;;;;5040427;28;20036;-59
2022/01/19 15:32:18;;;;;;;6.80;5.57;;;;;;;;;;5038935;28;20087;-59
2022/01/19 15:34:43;;;;;;;11.30;6.88;;;;;;;;;;5038462;28;20120;-59
2022/01/19 15:37:09;;;;;;;7.43;6.63;;;;;;;;;;5035935;28;20132;-59
2022/01/19 15:39:35;;;;;;;6.35;5.60;;;;;;;;;;5035125;28;20072;-59
2022/01/19 15:42:01;;;;;;;10.77;6.25;;;;;;;;;;5038509;28;20036;-59
2022/01/19 15:44:27;;;;;;;6.20;5.68;;;;;;;;;;5042157;28;20143;-59
2022/01/19 15:46:53;;;;;;;5.47;4.97;;;;;;;;;;5042411;28;20024;-58
2022/01/19 15:49:19;;;;;;;6.32;5.72;;;;;;;;;;5041749;28;20461;-59
2022/01/19 15:51:44;;;;;;;4.45;3.97;;;;;;;;;;5040863;28;20059;-59
2022/01/19 15:54:11;;;;;;;6.05;5.45;;;;;;;;;;5040651;28;20024;-59
2022/01/19 15:56:38;;;;;;;8.50;5.65;;;;;;;;;;5042222;28;20048;-59
2022/01/19 15:59:04;;;;;;;5.68;5.18;;;;;;;;;;5039286;28;20047;-59
2022/01/19 16:01:29;;;;;;;7.07;5.95;;;;;;;;;;5040306;28;20460;-58
2022/01/19 16:03:55;;;;;;;5.05;4.53;;;;;;;;;;5041040;28;20114;-59
2022/01/19 16:06:20;;;;;;;7.43;5.60;;;;;;;;;;5040093;28;20025;-58
2022/01/19 16:08:46;;;;;;;11.23;8.55;;;;;;;;;;5039590;28;20037;-58
2022/01/19 16:11:11;;;;;;;9.00;8.13;;;;;;;;;;5038350;28;20037;-58